Portada
METAR-TAF:

METAR-TAF

Aeropuertos :

Austin, Minnesota, Estados Unidos

latitud: 43-40N, longitud: 092-56W, altitud: 375 m

Observación

El informe se hizo hace 24 minutos, a las 04:15 UTC
Viento 3 kt del norte-noreste
Temperatura 6°C
Humedad 45%
Presión 1025 hPa
Visibilidad: 16.1 km
Cielo despejado

METAR: KAUM 110415Z AUTO 02003KT 10SM CLR 06/M05 A3028 RMK AO2

Hora: 23:39 (04:39 UTC)


TAF: falta

Observaciones y pronósticos meteorológicos de más de 4000 aeropuertos (mensajes METAR y TAF).

Los puntos amarillos y rojos representan las estaciones disponibles.

Ponga el ratón en el punto deseado para ver el nombre de la estación.

Haga clic para ver las observaciones y los pronósticos meteorológicos.

Para cambiar el mapa : haga clic en los botones verdes con una cruz de color negro para hacer un zoom, en el botón verde con un guión para alejar o en las flechas verdes para mapas adyacentes.


METAR-TAF: